createdAt,value
2019-01-23T00:03:36.359Z,-0.59
2019-01-23T00:08:31.892Z,-0.64
2019-01-23T00:13:27.409Z,-0.67
2019-01-23T00:18:23.133Z,-0.67
2019-01-23T00:23:18.652Z,-0.68
2019-01-23T00:28:14.887Z,-0.59
2019-01-23T00:33:10.648Z,-0.64
2019-01-23T00:38:06.011Z,-0.68
2019-01-23T00:43:01.507Z,-0.74
2019-01-23T00:47:56.955Z,-0.74
2019-01-23T00:52:53.210Z,-0.68
2019-01-23T00:57:48.666Z,-0.74
2019-01-23T01:02:44.437Z,-0.78
2019-01-23T01:07:40.754Z,-0.78
2019-01-23T01:12:36.338Z,-0.97
2019-01-23T01:17:31.756Z,-0.93
2019-01-23T01:22:27.479Z,-0.90
2019-01-23T01:27:22.983Z,-0.96
2019-01-23T01:32:20.085Z,-0.93
2019-01-23T01:37:15.557Z,-0.94
2019-01-23T01:42:11.026Z,-0.91
2019-01-23T01:47:06.608Z,-0.78
2019-01-23T01:52:02.471Z,-0.70
2019-01-23T01:56:58.045Z,-0.65
2019-01-23T02:01:53.667Z,-0.71
2019-01-23T02:06:49.104Z,-0.77
2019-01-23T02:11:44.694Z,-0.83
2019-01-23T02:16:40.452Z,-0.74
2019-01-23T02:21:35.981Z,-0.78
2019-01-23T02:26:33.231Z,-0.77
2019-01-23T02:31:28.529Z,-0.68
2019-01-23T02:36:25.253Z,-0.82
2019-01-23T02:41:20.375Z,-0.86
2019-01-23T02:46:16.701Z,-1.29
2019-01-23T02:51:14.030Z,-1.29
2019-01-23T02:56:09.210Z,-1.43
2019-01-23T03:01:04.628Z,-1.30
2019-01-23T03:06:00.051Z,-1.15
2019-01-23T03:10:55.855Z,-1.07
2019-01-23T03:15:52.082Z,-1.23
2019-01-23T03:20:48.148Z,-1.25
2019-01-23T03:25:43.396Z,-1.25
2019-01-23T03:30:39.893Z,-1.37
2019-01-23T03:35:36.665Z,-1.38
2019-01-23T03:40:33.674Z,-1.38
2019-01-23T03:45:29.682Z,-1.38
2019-01-23T03:50:25.146Z,-1.46
2019-01-23T03:55:20.781Z,-1.25
2019-01-23T04:00:16.279Z,-1.54
2019-01-23T04:05:11.806Z,-1.53
2019-01-23T04:10:07.209Z,-1.53
2019-01-23T04:15:02.539Z,-1.77
2019-01-23T04:19:58.064Z,-1.86
2019-01-23T04:24:54.349Z,-1.76
2019-01-23T04:29:50.594Z,-1.44
2019-01-23T04:34:45.883Z,-1.51
2019-01-23T04:39:41.527Z,-1.79
2019-01-23T04:44:37.155Z,-2.02
2019-01-23T04:49:32.412Z,-2.16
2019-01-23T04:54:27.620Z,-2.16
2019-01-23T04:59:23.083Z,-2.22
2019-01-23T05:04:19.962Z,-2.18
2019-01-23T05:09:15.001Z,-2.18
2019-01-23T05:14:10.372Z,-2.18
2019-01-23T05:19:06.519Z,-2.22
2019-01-23T05:24:02.169Z,-2.37
2019-01-23T05:28:57.281Z,-2.16
2019-01-23T05:33:53.554Z,-2.15
2019-01-23T05:38:49.240Z,-2.12
2019-01-23T05:43:44.834Z,-2.22
2019-01-23T05:48:41.244Z,-2.32
2019-01-23T05:53:37.283Z,-2.32
2019-01-23T05:58:32.530Z,-2.26
2019-01-23T06:03:27.973Z,-2.34
2019-01-23T06:08:23.497Z,-2.21
2019-01-23T06:13:19.062Z,-2.18
2019-01-23T06:18:14.718Z,-2.10
2019-01-23T06:23:10.210Z,-2.12
2019-01-23T06:28:06.568Z,-2.02
2019-01-23T06:33:03.155Z,-1.95
2019-01-23T06:37:58.357Z,-2.04
2019-01-23T06:42:53.922Z,-1.87
2019-01-23T06:47:50.450Z,-1.87
2019-01-23T06:52:46.656Z,-1.86
2019-01-23T06:57:42.668Z,-1.79
2019-01-23T07:02:38.909Z,-1.79
2019-01-23T07:07:33.998Z,-1.83
2019-01-23T07:12:29.832Z,-1.80
2019-01-23T07:17:25.209Z,-1.89
2019-01-23T07:22:21.512Z,-1.74
2019-01-23T07:27:17.257Z,-1.71
2019-01-23T07:32:12.824Z,-1.71
2019-01-23T07:37:08.541Z,-1.71
2019-01-23T07:42:03.990Z,-1.59
2019-01-23T07:46:59.607Z,-1.64
2019-01-23T07:51:56.885Z,-1.58
2019-01-23T07:56:52.826Z,-1.62
2019-01-23T08:01:48.161Z,-1.54
2019-01-23T08:06:43.711Z,-1.62
2019-01-23T08:11:39.176Z,-1.64
2019-01-23T08:16:34.678Z,-1.62
2019-01-23T08:21:30.292Z,-1.53
2019-01-23T08:26:25.878Z,-1.50
2019-01-23T08:31:22.580Z,-1.48
2019-01-23T08:36:17.839Z,-1.40
2019-01-23T08:41:13.158Z,-1.38
2019-01-23T08:46:08.679Z,-1.46
2019-01-23T08:51:04.357Z,-1.46
2019-01-23T08:55:59.979Z,-1.33
2019-01-23T09:00:55.478Z,-1.35
2019-01-23T09:05:50.917Z,-1.46
2019-01-23T09:10:47.225Z,-1.30
2019-01-23T09:15:42.879Z,-1.26
2019-01-23T09:20:38.664Z,-1.25
2019-01-23T09:25:34.229Z,-1.12
2019-01-23T09:30:30.036Z,-1.20
2019-01-23T09:35:25.618Z,-1.15
2019-01-23T09:40:22.987Z,-1.05
2019-01-23T09:45:18.390Z,-0.97
2019-01-23T09:50:13.882Z,-0.89
2019-01-23T09:55:09.895Z,-0.99
2019-01-23T10:00:05.436Z,-0.91
2019-01-23T10:05:01.855Z,-0.91
2019-01-23T10:09:57.642Z,-0.75
2019-01-23T10:14:54.172Z,-0.65
2019-01-23T10:19:50.639Z,-0.57
2019-01-23T10:24:45.928Z,-0.56
2019-01-23T10:29:42.348Z,-0.56
2019-01-23T10:34:37.253Z,-0.54
2019-01-23T10:39:32.775Z,-0.36
2019-01-23T10:44:28.505Z,-0.36
2019-01-23T10:49:23.989Z,-0.39
2019-01-23T10:54:19.439Z,-0.36
2019-01-23T10:59:14.930Z,-0.31
2019-01-23T11:04:10.430Z,-0.28
2019-01-23T11:09:06.996Z,-0.26
2019-01-23T11:14:03.361Z,-0.08
2019-01-23T11:18:58.729Z,-0.08
2019-01-23T11:23:54.605Z," 0.12"
2019-01-23T11:28:50.424Z," 0.18"
2019-01-23T11:33:46.166Z," 0.32"
2019-01-23T11:38:41.973Z," 0.25"
2019-01-23T11:43:38.597Z," 0.11"
2019-01-23T11:48:34.934Z," 0.25"
2019-01-23T11:53:31.106Z," 0.05"
2019-01-23T11:58:27.231Z,-0.20
2019-01-23T12:03:22.571Z," 0.03"
2019-01-23T12:08:18.227Z,-0.06
2019-01-23T12:13:13.778Z," 0.04"
2019-01-23T12:18:09.274Z," 0.03"
2019-01-23T12:23:04.758Z,-0.08
2019-01-23T12:28:01.397Z,-0.20
2019-01-23T12:32:57.552Z,-0.20
2019-01-23T12:37:53.412Z,-0.26
2019-01-23T12:42:48.612Z,-0.29
2019-01-23T12:47:44.898Z,-0.13
2019-01-23T12:52:40.615Z,-0.15
2019-01-23T12:57:37.345Z,-0.03
2019-01-23T13:02:33.432Z,-0.15
2019-01-23T13:07:33.376Z,-0.03
2019-01-23T13:12:28.923Z," 0.07"
2019-01-23T13:17:24.450Z," 0.01"
2019-01-23T13:22:21.032Z," 0.12"
2019-01-23T13:27:16.465Z," 0.05"
2019-01-23T13:32:12.017Z,-0.18
2019-01-23T13:37:07.358Z,-0.31
2019-01-23T13:42:03.433Z,-0.32
2019-01-23T13:46:58.851Z,-0.41
2019-01-23T13:51:54.143Z,-0.36
2019-01-23T13:56:51.440Z,-0.39
2019-01-23T14:01:46.704Z,-0.28
2019-01-23T14:06:43.350Z,-0.28
2019-01-23T14:11:39.265Z,-0.36
2019-01-23T14:16:35.814Z,-0.39
2019-01-23T14:21:30.891Z,-0.20
2019-01-23T14:26:27.674Z,-0.26
2019-01-23T14:31:22.788Z,-0.39
2019-01-23T14:36:18.257Z,-0.39
2019-01-23T14:41:13.806Z,-0.43
2019-01-23T14:46:09.407Z,-0.44
2019-01-23T14:51:06.193Z,-0.34
2019-01-23T14:56:01.432Z,-0.34
2019-01-23T15:00:56.873Z,-0.44
2019-01-23T15:05:52.611Z,-0.46
2019-01-23T15:10:48.797Z,-0.57
2019-01-23T15:15:44.919Z,-0.68
2019-01-23T15:20:40.510Z,-0.59
2019-01-23T15:25:36.955Z,-0.77
2019-01-23T15:30:33.169Z,-0.85
2019-01-23T15:35:28.334Z,-1.07
2019-01-23T15:40:23.631Z,-1.07
2019-01-23T15:45:18.950Z,-1.11
2019-01-23T15:50:14.986Z,-1.20
2019-01-23T15:55:10.171Z,-1.19
2019-01-23T16:00:06.443Z,-1.23
2019-01-23T16:05:02.533Z,-1.22
2019-01-23T16:09:57.676Z,-1.19
2019-01-23T16:14:53.119Z,-1.15
2019-01-23T16:19:49.008Z,-1.08
2019-01-23T16:24:45.338Z,-1.17
2019-01-23T16:29:41.864Z,-1.30
2019-01-23T16:34:38.167Z,-1.29
2019-01-23T16:39:33.813Z,-1.33
2019-01-23T16:44:30.115Z,-1.27
2019-01-23T16:49:26.280Z,-1.35
2019-01-23T16:54:23.158Z,-1.38
2019-01-23T16:59:18.453Z,-1.33
2019-01-23T17:04:13.901Z,-1.43
2019-01-23T17:09:10.263Z,-1.41
2019-01-23T17:14:05.623Z,-1.51
2019-01-23T17:19:01.063Z,-1.50
2019-01-23T17:23:57.369Z,-1.58
2019-01-23T17:28:52.746Z,-1.61
2019-01-23T17:33:48.221Z,-1.59
2019-01-23T17:38:44.819Z,-1.62
2019-01-23T17:43:40.076Z,-1.72
2019-01-23T17:48:35.614Z,-1.77
2019-01-23T17:53:31.145Z,-1.77
2019-01-23T17:58:26.620Z,-1.80
2019-01-23T18:03:22.123Z,-1.80
2019-01-23T18:08:17.455Z,-1.83
2019-01-23T18:13:12.501Z,-1.98
2019-01-23T18:18:09.333Z,-2.07
2019-01-23T18:23:04.540Z,-2.12
2019-01-23T18:28:00.101Z,-2.15
2019-01-23T18:32:59.964Z,-2.15
2019-01-23T18:37:54.556Z,-2.12
2019-01-23T18:42:50.156Z,-2.19
2019-01-23T18:47:45.702Z,-2.34
2019-01-23T18:52:41.121Z,-2.28
2019-01-23T18:57:36.655Z,-2.32
2019-01-23T19:02:31.966Z,-2.34
2019-01-23T19:07:27.501Z,-2.37
2019-01-23T19:12:22.609Z,-2.38
2019-01-23T19:17:18.189Z,-2.52
2019-01-23T19:22:13.596Z,-2.50
2019-01-23T19:27:08.981Z,-2.44
2019-01-23T19:32:04.721Z,-2.53
2019-01-23T19:37:00.179Z,-2.42
2019-01-23T19:41:55.653Z,-2.58
2019-01-23T19:46:51.487Z,-2.66
2019-01-23T19:51:46.985Z,-2.74
2019-01-23T19:56:42.603Z,-2.74
2019-01-23T20:01:37.939Z,-2.70
2019-01-23T20:06:33.319Z,-2.70
2019-01-23T20:11:28.848Z,-2.73
2019-01-23T20:16:24.253Z,-2.65
2019-01-23T20:21:19.774Z,-2.63
2019-01-23T20:26:15.378Z,-2.77
2019-01-23T20:31:10.856Z,-2.74
2019-01-23T20:36:07.133Z,-2.73
2019-01-23T20:41:02.745Z,-2.77
2019-01-23T20:45:59.558Z,-2.69
2019-01-23T20:50:56.007Z,-2.76
2019-01-23T20:55:52.365Z,-2.73
2019-01-23T21:00:47.639Z,-2.73
2019-01-23T21:05:43.141Z,-2.65
2019-01-23T21:10:39.391Z,-2.60
2019-01-23T21:15:34.992Z,-2.58
2019-01-23T21:20:31.058Z,-2.69
2019-01-23T21:25:27.197Z,-2.66
2019-01-23T21:30:22.636Z,-2.69
2019-01-23T21:35:20.329Z,-2.71
2019-01-23T21:40:15.408Z,-2.76
2019-01-23T21:45:10.521Z,-2.66
2019-01-23T21:50:06.743Z,-2.69
2019-01-23T21:55:03.138Z,-2.74
2019-01-23T21:59:59.621Z,-2.84
2019-01-23T22:04:54.832Z,-2.70
2019-01-23T22:09:50.209Z,-2.86
2019-01-23T22:14:46.319Z,-2.86
2019-01-23T22:19:41.771Z,-2.97
2019-01-23T22:24:37.014Z,-3.07
2019-01-23T22:29:33.484Z,-3.09
2019-01-23T22:34:29.544Z,-3.13
2019-01-23T22:39:25.546Z,-3.23
2019-01-23T22:44:21.900Z,-3.38
2019-01-23T22:49:17.140Z,-3.37
2019-01-23T22:54:12.571Z,-3.54
2019-01-23T22:59:07.871Z,-3.46
2019-01-23T23:04:03.767Z,-3.49
2019-01-23T23:08:59.272Z,-3.52
2019-01-23T23:13:54.687Z,-3.66
2019-01-23T23:18:49.835Z,-3.67
2019-01-23T23:23:45.332Z,-3.72
2019-01-23T23:28:41.757Z,-3.86
2019-01-23T23:33:37.039Z,-3.99
2019-01-23T23:38:32.559Z,-4.07
2019-01-23T23:43:27.929Z,-4.16
2019-01-23T23:48:23.133Z,-4.17
2019-01-23T23:53:19.499Z,-4.14
2019-01-23T23:58:16.562Z,-4.24
